Tuesday, August 30, 2016
09:15 UTC
  |  Log In   |  Register Free
Airport Search:

Francis E Warren Afb Airport
(KFEW)

Francis E Warren Afb Airport Diagram
No Airport Diagram Available

FAA data valid effective Jul 21 2016 - Sep 15 2016 (unless otherwise noted).

 
 
 
 
 
 
 
 
 
 
 
 
 
 
Summary: Francis E Warren Afb (FEW)

Weather Summary


METAR for FEW is not available. Closest METAR is for
METAR

METAR KFEW 300858Z 31007KT 10SM BKN240 12/05 A3040 RMK AO2 SLP223 T01190048 56001 $

METAR KFEW 300758Z 31006KT 10SM CLR 12/05 A3040 RMK AO2 SLP223 T01200050 $

METAR KFEW 300658Z 30006KT 10SM FEW240 12/05 A3040 RMK AO2 SLP223 T01220052 402800084 $

METAR K82V 300855Z 33003KT 10SM CLR 12/07 A3034 RMK AO2

METAR KCYS 300853Z 28006KT 10SM CLR 12/06 A3038 RMK AO2 SLP207 T01220061 56002

TAF for FEW is not available.
TAF

KCYS - TAF KCYS 300520Z 3006/3106 VRB05KT P6SM BKN250

KCYS - FM301600 10010KT P6SM SCT080 =

GlobalAir.com is loading additional information.
Current weather conditions are not available for FEW.

The nearest NOAA weather station is at CYS (2.5 nm NE from FEW)
 Current Weather at CYS
55.0 F° (12.8 C°)
Fair
West winds at 8.1 mph
Pressure:
30.38 in
Humidity:
59%
Wind:
West at 8.1 MPH (7 KT)
Dew Point:
41.0 F° (5.0 C°)
Visibility:
10.00 mi
FEW NOAA Radar

Runway Summary

ID Dimensions Surface Instrument Approaches
H1 65 ft x 65 ft Bituminous Concrete, Good Condition N/A
H2 50 ft x 50 ft Bituminous Concrete N/A

Communications Summary


CTAFN/A
UNICOMN/A
ATISN/A
CLEARANCE DELIVERYN/A

Terminal Procedures Summary


No terminal procedures available for FEW





Closest Alternate Airports with Instrument Procedures

KCYS - Cheyenne Regional/Jerry Olson Field - 3.3 nm NE from FEW

KLAR - Laramie Regional - 43.8 nm NW from FEW

KFNL - Fort Collins-Loveland Municipal - 47.7 nm SW from FEW

KGXY - Greeley-Weld County - 49.7 nm SE from FEW

KIBM - Kimball Municipal/Robert E Arraj Field - 62.1 nm NE from FEW

KLMO - Vance Brand - 68.8 nm SW from FEW

KTOR - Torrington Municipal - 74.2 nm NE from FEW

KEIK - Erie Municipal - 78.3 nm SW from FEW

KBFF - Western Neb. Regional/William B. Heilig Field - 83.4 nm NE from FEW

KBJC - Rocky Mountain Metropolitan - 85.7 nm SW from FEW

Find All Airport Services Find A Hotel Find A Rental Car Find A Golf Course Find A Restaurant $100 Hamburger



FBO's on the Field
FBO Company Facility Photos Services Transportation Aviation Fuel Prices: Prices include tax
Catering Weather Repair Courtesy Rental Type 100LL JetA JetA+ MOGAS 8087
 
Add another FBO Facility Photos Catering Weather Repair Courtesy Rental Type 100LL JetA JetA+ MOGAS 8087
Services Transportation Aviation Fuel Prices: Prices include tax
There are no FBO's currently reporting fuel at FEW. List your FBO now


model-print
model-print
model-print
model-print